Adams Corners, New York
Current Conditions -  °F | °C
As of 8:45 AM on Saturday 20 Dec 2014 (Local Time) from KSWF Reporting Station
Overcast Overcast  
Wind Chill: 20°   Ceiling: 2500
Heat Index: 27°   Visibility: 15mi
Dew Point: 21°   Wind: 6mph
Humidity: 80%   Direction: NA
Pressure: 30.28"   Gusts: NA
Location:  41.3969°N, 73.8382°W
Report Text: KSWF 201345Z VRB05KT 15SM OVC025 M03/M06 A3028
Loading
Personal Weather Stations






























Interactive Weather Map New forecast layout! Learn more

10-Day Weather Forecast

Advertisements
Track Severe Weather on mobile